createdAt,value
2023-02-15T00:01:11.148Z,6.10
2023-02-15T00:03:56.667Z,6.10
2023-02-15T00:06:42.418Z,6.10
2023-02-15T00:09:27.783Z,6.10
2023-02-15T00:12:13.295Z,6.00
2023-02-15T00:14:58.569Z,6.10
2023-02-15T00:17:43.892Z,6.10
2023-02-15T00:20:29.270Z,6.10
2023-02-15T00:23:15.079Z,6.10
2023-02-15T00:26:08.151Z,6.10
2023-02-15T00:28:54.412Z,6.00
2023-02-15T00:31:40.277Z,5.90
2023-02-15T00:34:26.634Z,5.80
2023-02-15T00:37:12.243Z,5.70
2023-02-15T00:39:58.043Z,5.70
2023-02-15T00:42:43.280Z,5.70
2023-02-15T00:45:28.688Z,5.70
2023-02-15T00:48:13.951Z,5.70
2023-02-15T00:51:01.091Z,5.70
2023-02-15T00:53:47.100Z,5.70
2023-02-15T00:56:32.616Z,5.80
2023-02-15T00:59:18.585Z,5.80
2023-02-15T01:02:04.313Z,5.80
2023-02-15T01:04:49.668Z,5.90
2023-02-15T01:07:35.744Z,5.90
2023-02-15T01:10:21.740Z,5.90
2023-02-15T01:13:07.772Z,5.90
2023-02-15T01:15:56.328Z,5.90
2023-02-15T01:18:41.861Z,5.80
2023-02-15T01:21:27.507Z,5.80
2023-02-15T01:24:16.357Z,5.80
2023-02-15T01:27:01.906Z,5.70
2023-02-15T01:29:48.519Z,5.60
2023-02-15T01:32:34.128Z,5.50
2023-02-15T01:35:19.478Z,5.40
2023-02-15T01:38:06.574Z,5.40
2023-02-15T01:40:53.579Z,5.40
2023-02-15T01:43:40.611Z,5.30
2023-02-15T01:46:28.843Z,5.30
2023-02-15T01:49:16.569Z,5.30
2023-02-15T01:52:02.287Z,5.30
2023-02-15T01:54:47.822Z,5.40
2023-02-15T01:57:33.451Z,5.50
2023-02-15T02:00:19.021Z,5.50
2023-02-15T02:03:06.858Z,5.60
2023-02-15T02:05:53.068Z,5.50
2023-02-15T02:08:38.934Z,5.50
2023-02-15T02:11:24.670Z,5.50
2023-02-15T02:14:10.234Z,5.50
2023-02-15T02:17:02.035Z,5.40
2023-02-15T02:20:06.332Z,5.40
2023-02-15T02:23:00.901Z,5.30
2023-02-15T02:26:05.522Z,5.30
2023-02-15T02:28:51.051Z,5.30
2023-02-15T02:31:39.951Z,5.20
2023-02-15T02:34:29.123Z,5.20
2023-02-15T02:37:21.871Z,5.20
2023-02-15T02:40:22.651Z,5.20
2023-02-15T02:43:22.743Z,5.10
2023-02-15T02:46:14.324Z,5.10
2023-02-15T02:49:00.028Z,5.10
2023-02-15T02:51:45.690Z,5.10
2023-02-15T02:54:31.916Z,5.00
2023-02-15T02:57:18.908Z,5.00
2023-02-15T03:00:05.544Z,5.00
2023-02-15T03:02:52.843Z,4.90
2023-02-15T03:05:42.083Z,5.00
2023-02-15T03:08:31.385Z,4.90
2023-02-15T03:11:17.070Z,4.90
2023-02-15T03:14:02.698Z,4.90
2023-02-15T03:16:48.752Z,4.80
2023-02-15T03:19:35.974Z,4.90
2023-02-15T03:22:25.458Z,4.70
2023-02-15T03:25:13.668Z,4.70
2023-02-15T03:28:03.546Z,4.60
2023-02-15T03:30:52.868Z,4.60
2023-02-15T03:33:42.009Z,4.60
2023-02-15T03:36:31.801Z,4.70
2023-02-15T03:39:36.116Z,4.70
2023-02-15T03:42:27.718Z,4.80
2023-02-15T03:45:16.798Z,4.70
2023-02-15T03:48:03.131Z,4.70
2023-02-15T03:51:07.185Z,4.70
2023-02-15T03:53:53.084Z,4.70
2023-02-15T03:56:39.788Z,4.70
2023-02-15T03:59:44.218Z,4.70
2023-02-15T04:02:32.571Z,4.70
2023-02-15T04:05:18.002Z,4.70
2023-02-15T04:08:03.735Z,4.70
2023-02-15T04:10:57.155Z,4.60
2023-02-15T04:13:45.319Z,4.60
2023-02-15T04:16:31.347Z,4.60
2023-02-15T04:19:35.819Z,4.60
2023-02-15T04:22:40.150Z,4.60
2023-02-15T04:25:25.629Z,4.60
2023-02-15T04:28:10.983Z,4.50
2023-02-15T04:30:56.396Z,4.50
2023-02-15T04:33:44.726Z,4.50
2023-02-15T04:36:30.665Z,4.50
2023-02-15T04:39:17.019Z,4.60
2023-02-15T04:42:02.564Z,4.70
2023-02-15T04:44:47.887Z,4.70
2023-02-15T04:47:33.318Z,4.80
2023-02-15T04:50:18.938Z,4.90
2023-02-15T04:53:04.506Z,4.80
2023-02-15T04:55:49.955Z,4.70
2023-02-15T04:58:36.324Z,4.60
2023-02-15T05:01:21.655Z,4.40
2023-02-15T05:04:07.656Z,4.30
2023-02-15T05:06:53.503Z,4.10
2023-02-15T05:09:38.763Z,4.10
2023-02-15T05:12:24.174Z,4.10
2023-02-15T05:15:09.871Z,4.00
2023-02-15T05:17:55.844Z,4.00
2023-02-15T05:20:41.857Z,4.00
2023-02-15T05:23:27.494Z,4.00
2023-02-15T05:26:32.234Z,4.00
2023-02-15T05:29:17.884Z,4.00
2023-02-15T05:32:03.629Z,4.00
2023-02-15T05:34:49.428Z,3.90
2023-02-15T05:37:34.878Z,3.90
2023-02-15T05:40:20.591Z,3.90
2023-02-15T05:43:06.051Z,3.80
2023-02-15T05:45:52.696Z,3.80
2023-02-15T05:48:38.235Z,3.80
2023-02-15T05:51:23.640Z,3.80
2023-02-15T05:54:08.970Z,3.80
2023-02-15T05:56:54.370Z,3.70
2023-02-15T05:59:39.565Z,3.70
2023-02-15T06:02:25.121Z,3.70
2023-02-15T06:05:10.811Z,3.70
2023-02-15T06:07:56.606Z,3.70
2023-02-15T06:10:42.146Z,3.70
2023-02-15T06:13:27.973Z,3.70
2023-02-15T06:16:13.981Z,3.70
2023-02-15T06:19:00.259Z,3.70
2023-02-15T06:21:45.835Z,3.70
2023-02-15T06:24:31.642Z,3.60
2023-02-15T06:27:17.376Z,3.70
2023-02-15T06:30:02.765Z,3.70
2023-02-15T06:32:48.306Z,3.80
2023-02-15T06:35:34.207Z,3.80
2023-02-15T06:38:19.739Z,3.80
2023-02-15T06:41:05.312Z,3.80
2023-02-15T06:43:51.421Z,3.80
2023-02-15T06:46:36.697Z,3.90
2023-02-15T06:49:22.467Z,4.00
2023-02-15T06:52:08.189Z,4.00
2023-02-15T06:54:53.376Z,4.10
2023-02-15T06:57:39.090Z,4.20
2023-02-15T07:00:24.461Z,4.20
2023-02-15T07:03:10.023Z,4.20
2023-02-15T07:05:59.529Z,4.30
2023-02-15T07:08:45.774Z,4.50
2023-02-15T07:11:50.168Z,4.60
2023-02-15T07:14:36.092Z,4.80
2023-02-15T07:17:35.450Z,5.40
2023-02-15T07:20:22.671Z,6.60
2023-02-15T07:23:09.143Z,7.50
2023-02-15T07:25:58.425Z,8.10
2023-02-15T07:28:43.669Z,8.00
2023-02-15T07:31:29.231Z,7.80
2023-02-15T07:34:15.190Z,7.80
2023-02-15T07:37:00.566Z,7.70
2023-02-15T07:39:46.568Z,7.80
2023-02-15T07:46:02.760Z,8.00
2023-02-15T07:48:58.996Z,8.20
2023-02-15T07:51:44.425Z,8.40
2023-02-15T07:54:29.791Z,8.60
2023-02-15T07:57:17.503Z,8.80
2023-02-15T08:00:03.004Z,9.00
2023-02-15T08:03:16.854Z,9.20
2023-02-15T08:06:04.049Z,9.40
2023-02-15T08:08:50.313Z,9.50
2023-02-15T08:11:40.859Z,9.70
2023-02-15T08:14:35.161Z,9.90
2023-02-15T08:17:25.942Z,10.10
2023-02-15T08:20:15.037Z,10.30
2023-02-15T08:23:03.740Z,10.50
2023-02-15T08:25:49.311Z,10.60
2023-02-15T08:28:34.610Z,10.70
2023-02-15T08:31:20.730Z,10.80
2023-02-15T08:34:06.558Z,10.90
2023-02-15T08:36:52.059Z,11.00
2023-02-15T08:39:37.894Z,11.10
2023-02-15T08:42:23.462Z,11.20
2023-02-15T08:45:09.312Z,11.40
2023-02-15T08:47:54.472Z,11.40
2023-02-15T08:50:40.548Z,11.60
2023-02-15T08:53:26.097Z,11.50
2023-02-15T08:56:11.637Z,11.60
2023-02-15T08:58:57.370Z,11.80
2023-02-15T09:01:43.581Z,11.80
2023-02-15T09:04:28.950Z,11.90
2023-02-15T09:07:14.247Z,11.80
2023-02-15T09:09:59.458Z,11.80
2023-02-15T09:12:44.802Z,11.90
2023-02-15T09:15:30.241Z,11.90
2023-02-15T09:18:18.032Z,11.80
2023-02-15T09:21:17.276Z,11.90
2023-02-15T09:24:04.127Z,11.90
2023-02-15T09:26:49.698Z,11.90
2023-02-15T09:29:35.269Z,12.00
2023-02-15T09:32:29.020Z,12.00
2023-02-15T09:35:14.855Z,12.00
2023-02-15T09:38:00.347Z,12.00
2023-02-15T09:40:52.336Z,12.10
2023-02-15T09:43:51.175Z,12.00
2023-02-15T09:46:43.666Z,12.10
2023-02-15T09:49:52.535Z,12.10
2023-02-15T09:52:49.206Z,12.20
2023-02-15T09:55:53.577Z,12.30
2023-02-15T09:58:42.391Z,12.30
2023-02-15T10:01:37.647Z,12.40
2023-02-15T10:04:35.536Z,12.50
2023-02-15T10:07:21.033Z,12.60
2023-02-15T10:10:06.964Z,12.80
2023-02-15T10:13:01.860Z,12.90
2023-02-15T10:15:54.315Z,12.90
2023-02-15T10:18:48.092Z,13.00
2023-02-15T10:21:34.119Z,13.20
2023-02-15T10:24:51.468Z,13.30
2023-02-15T10:27:45.366Z,13.30
2023-02-15T10:30:32.547Z,13.40
2023-02-15T10:33:36.480Z,13.50
2023-02-15T10:36:34.016Z,13.70
2023-02-15T10:39:19.913Z,13.80
2023-02-15T10:42:25.027Z,13.80
2023-02-15T10:45:29.608Z,13.70
2023-02-15T10:48:18.139Z,13.70
2023-02-15T10:51:05.177Z,13.60
2023-02-15T10:53:59.010Z,13.60
2023-02-15T10:56:44.663Z,13.60
2023-02-15T10:59:42.322Z,13.70
2023-02-15T11:02:30.586Z,13.70
2023-02-15T11:05:16.428Z,13.80
2023-02-15T11:08:05.046Z,13.90
2023-02-15T11:11:03.143Z,13.90
2023-02-15T11:13:53.156Z,13.90
2023-02-15T11:16:41.597Z,13.90
2023-02-15T11:19:33.021Z,13.90
2023-02-15T11:22:18.497Z,14.00
2023-02-15T11:25:16.014Z,14.00
2023-02-15T11:28:04.221Z,14.00
2023-02-15T11:30:53.211Z,14.10
2023-02-15T11:33:45.780Z,14.20
2023-02-15T11:36:35.793Z,14.30
2023-02-15T11:39:22.280Z,14.30
2023-02-15T11:42:11.905Z,14.30
2023-02-15T11:45:16.461Z,14.30
2023-02-15T11:48:09.399Z,14.40
2023-02-15T11:50:54.872Z,14.50
2023-02-15T11:53:40.714Z,14.50
2023-02-15T11:57:29.239Z,14.50
2023-02-15T12:00:14.837Z,14.50
2023-02-15T12:03:02.898Z,14.60
2023-02-15T12:05:50.760Z,14.60
2023-02-15T12:08:40.597Z,14.70
2023-02-15T12:11:32.556Z,14.80
2023-02-15T12:14:18.022Z,14.90
2023-02-15T12:17:13.924Z,14.90
2023-02-15T12:20:07.641Z,15.00
2023-02-15T12:22:55.782Z,15.00
2023-02-15T12:25:52.916Z,15.00
2023-02-15T12:28:45.538Z,15.00
2023-02-15T12:31:40.098Z,15.00
2023-02-15T12:34:25.875Z,15.00
2023-02-15T12:37:22.313Z,15.10
2023-02-15T12:40:43.900Z,15.10
2023-02-15T12:43:33.588Z,15.10
2023-02-15T12:46:26.492Z,15.30
2023-02-15T12:49:20.519Z,15.30
2023-02-15T12:52:08.885Z,15.30
2023-02-15T12:54:54.428Z,15.30
2023-02-15T12:57:40.249Z,15.30
2023-02-15T13:00:28.634Z,15.40
2023-02-15T13:03:25.063Z,15.40
2023-02-15T13:06:10.731Z,15.50
2023-02-15T13:08:58.302Z,15.40
2023-02-15T13:11:44.548Z,15.40
2023-02-15T13:14:32.205Z,15.40
2023-02-15T13:17:18.956Z,15.40
2023-02-15T13:20:08.375Z,15.40
2023-02-15T13:23:06.198Z,15.40
2023-02-15T13:25:52.618Z,15.40
2023-02-15T13:28:45.496Z,15.50
2023-02-15T13:31:34.157Z,15.50
2023-02-15T13:34:29.652Z,15.60
2023-02-15T13:37:15.279Z,15.70
2023-02-15T13:40:16.672Z,15.70
2023-02-15T13:43:12.228Z,15.60
2023-02-15T13:46:05.380Z,15.60
2023-02-15T13:49:10.376Z,15.60
2023-02-15T13:52:04.115Z,15.60
2023-02-15T13:54:52.800Z,15.60
2023-02-15T13:57:38.004Z,15.60
2023-02-15T14:00:26.505Z,15.60
2023-02-15T14:03:20.118Z,15.70
2023-02-15T14:06:14.806Z,15.70
2023-02-15T14:09:10.326Z,15.60
2023-02-15T14:12:03.726Z,15.60
2023-02-15T14:15:08.393Z,15.70
2023-02-15T14:18:02.661Z,15.70
2023-02-15T14:21:04.186Z,15.70
2023-02-15T14:24:22.449Z,15.70
2023-02-15T14:27:24.301Z,15.70
2023-02-15T14:30:19.474Z,15.70
2023-02-15T14:33:10.163Z,15.70
2023-02-15T14:35:57.263Z,15.70
2023-02-15T14:38:58.065Z,15.80
2023-02-15T14:41:51.150Z,15.80
2023-02-15T14:44:42.979Z,15.80
2023-02-15T14:47:32.356Z,15.80
2023-02-15T14:50:38.427Z,15.80
2023-02-15T14:53:33.201Z,15.80
2023-02-15T14:56:20.492Z,15.80
2023-02-15T14:59:24.713Z,15.80
2023-02-15T15:02:09.805Z,15.80
2023-02-15T15:05:07.683Z,15.70
2023-02-15T15:07:57.969Z,15.70
2023-02-15T15:10:44.823Z,15.70
2023-02-15T15:13:33.390Z,15.70
2023-02-15T15:16:28.013Z,15.80
2023-02-15T15:19:49.844Z,15.70
2023-02-15T15:22:37.258Z,15.70
2023-02-15T15:25:38.414Z,15.60
2023-02-15T15:28:36.203Z,15.60
2023-02-15T15:31:40.559Z,15.50
2023-02-15T15:34:39.963Z,15.60
2023-02-15T15:37:31.936Z,15.50
2023-02-15T15:40:36.504Z,15.50
2023-02-15T15:43:22.418Z,15.40
2023-02-15T15:46:14.613Z,15.30
2023-02-15T15:49:17.101Z,15.30
2023-02-15T15:52:04.083Z,15.30
2023-02-15T15:54:53.627Z,15.20
2023-02-15T15:57:40.279Z,15.10
2023-02-15T16:00:45.775Z,15.00
2023-02-15T16:03:31.502Z,15.10
2023-02-15T16:06:34.807Z,15.00
2023-02-15T16:09:22.634Z,14.90
2023-02-15T16:12:16.616Z,14.80
2023-02-15T16:15:03.296Z,14.70
2023-02-15T16:17:50.460Z,14.70
2023-02-15T16:20:37.787Z,14.60
2023-02-15T16:23:29.549Z,14.50
2023-02-15T16:26:21.227Z,14.40
2023-02-15T16:29:17.082Z,14.30
2023-02-15T16:32:05.303Z,14.30
2023-02-15T16:34:55.207Z,14.20
2023-02-15T16:37:40.603Z,14.00
2023-02-15T16:40:26.267Z,14.00
2023-02-15T16:43:16.725Z,13.90
2023-02-15T16:46:06.464Z,13.80
2023-02-15T16:48:53.151Z,13.70
2023-02-15T16:51:42.508Z,13.60
2023-02-15T16:54:29.096Z,13.50
2023-02-15T16:57:22.559Z,13.40
2023-02-15T17:00:17.880Z,13.30
2023-02-15T17:03:23.599Z,13.20
2023-02-15T17:06:22.264Z,13.10
2023-02-15T17:09:14.653Z,13.00
2023-02-15T17:12:03.028Z,12.90
2023-02-15T17:14:55.219Z,12.80
2023-02-15T17:17:42.409Z,12.60
2023-02-15T17:20:28.295Z,12.50
2023-02-15T17:23:20.055Z,12.40
2023-02-15T17:26:25.320Z,12.40
2023-02-15T17:29:29.211Z,12.30
2023-02-15T17:32:20.541Z,12.20
2023-02-15T17:35:09.455Z,12.10
2023-02-15T17:38:27.509Z,11.90
2023-02-15T17:41:13.038Z,11.90
2023-02-15T17:43:58.683Z,11.70
2023-02-15T17:46:45.276Z,11.60
2023-02-15T17:49:35.503Z,11.60
2023-02-15T17:52:22.883Z,11.50
2023-02-15T17:55:32.300Z,11.40
2023-02-15T17:58:22.406Z,11.30
2023-02-15T18:01:31.898Z,11.20
2023-02-15T18:04:36.466Z,11.00
2023-02-15T18:07:41.126Z,10.90
2023-02-15T18:10:45.362Z,10.80
2023-02-15T18:13:30.768Z,10.70
2023-02-15T18:16:17.398Z,10.60
2023-02-15T18:19:04.870Z,10.60
2023-02-15T18:21:52.560Z,10.40
2023-02-15T18:24:38.281Z,10.30
2023-02-15T18:27:23.946Z,10.20
2023-02-15T18:30:14.175Z,10.20
2023-02-15T18:33:00.144Z,10.10
2023-02-15T18:35:46.029Z,10.10
2023-02-15T18:38:32.954Z,10.00
2023-02-15T18:41:19.746Z,10.00
2023-02-15T18:44:10.319Z,9.90
2023-02-15T18:46:56.069Z,9.80
2023-02-15T18:49:41.632Z,9.80
2023-02-15T18:52:30.122Z,9.70
2023-02-15T18:55:17.832Z,9.70
2023-02-15T18:58:03.421Z,9.60
2023-02-15T19:00:49.970Z,9.50
2023-02-15T19:03:35.734Z,9.40
2023-02-15T19:06:23.082Z,9.30
2023-02-15T19:09:12.676Z,9.30
2023-02-15T19:11:58.754Z,9.20
2023-02-15T19:14:44.204Z,9.20
2023-02-15T19:17:29.902Z,9.10
2023-02-15T19:20:18.778Z,9.10
2023-02-15T19:23:06.069Z,9.00
2023-02-15T19:25:52.563Z,9.00
2023-02-15T19:28:38.411Z,8.90
2023-02-15T19:31:24.267Z,8.90
2023-02-15T19:34:13.158Z,8.90
2023-02-15T19:36:58.549Z,8.80
2023-02-15T19:39:44.204Z,8.70
2023-02-15T19:42:29.953Z,8.70
2023-02-15T19:45:25.316Z,8.70
2023-02-15T19:48:14.788Z,8.60
2023-02-15T19:51:09.063Z,8.60
2023-02-15T19:53:57.684Z,8.50
2023-02-15T19:56:43.102Z,8.50
2023-02-15T19:59:32.930Z,8.40
2023-02-15T20:02:20.190Z,8.30
2023-02-15T20:05:06.217Z,8.30
2023-02-15T20:07:52.434Z,8.30
2023-02-15T20:10:37.749Z,8.30
2023-02-15T20:13:23.162Z,8.20
2023-02-15T20:16:09.855Z,8.30
2023-02-15T20:18:55.670Z,8.30
2023-02-15T20:21:42.726Z,8.30
2023-02-15T20:24:28.667Z,8.30
2023-02-15T20:27:17.837Z,8.30
2023-02-15T20:30:03.880Z,8.30
2023-02-15T20:32:50.141Z,8.30
2023-02-15T20:35:35.808Z,8.40
2023-02-15T20:38:25.550Z,8.40
2023-02-15T20:41:37.570Z,8.40
2023-02-15T20:44:26.891Z,8.40
2023-02-15T20:47:12.304Z,8.50
2023-02-15T20:49:59.182Z,8.40
2023-02-15T20:52:45.418Z,8.40
2023-02-15T20:55:31.822Z,8.40
2023-02-15T20:58:17.204Z,8.40
2023-02-15T21:01:03.383Z,8.50
2023-02-15T21:03:48.991Z,8.50
2023-02-15T21:06:34.570Z,8.40
2023-02-15T21:09:20.209Z,8.30
2023-02-15T21:12:06.498Z,8.20
2023-02-15T21:14:52.145Z,8.20
2023-02-15T21:17:38.772Z,8.20
2023-02-15T21:20:25.332Z,8.20
2023-02-15T21:23:12.484Z,8.20
2023-02-15T21:25:57.933Z,8.20
2023-02-15T21:28:43.561Z,8.10
2023-02-15T21:31:29.427Z,8.10
2023-02-15T21:34:15.432Z,8.10
2023-02-15T21:37:01.439Z,8.10
2023-02-15T21:39:46.796Z,8.00
2023-02-15T21:42:51.328Z,7.90
2023-02-15T21:45:55.587Z,7.90
2023-02-15T21:48:41.098Z,7.80
2023-02-15T21:51:45.209Z,7.70
2023-02-15T21:54:30.623Z,7.70
2023-02-15T21:57:17.384Z,7.60
2023-02-15T22:00:03.557Z,7.60
2023-02-15T22:02:53.659Z,7.60
2023-02-15T22:05:39.496Z,7.70
2023-02-15T22:08:25.261Z,7.70
2023-02-15T22:11:15.464Z,7.70
2023-02-15T22:14:01.117Z,7.70
2023-02-15T22:16:46.339Z,7.70
2023-02-15T22:19:32.059Z,7.70
2023-02-15T22:22:18.021Z,7.70
2023-02-15T22:25:03.559Z,7.70
2023-02-15T22:27:49.603Z,7.60
2023-02-15T22:30:36.573Z,7.50
2023-02-15T22:33:23.867Z,7.40
2023-02-15T22:36:20.101Z,7.30
2023-02-15T22:39:07.964Z,7.20
2023-02-15T22:41:54.284Z,7.20
2023-02-15T22:44:39.744Z,7.10
2023-02-15T22:47:26.337Z,7.10
2023-02-15T22:50:17.157Z,7.10
2023-02-15T22:53:03.616Z,7.00
2023-02-15T22:55:49.967Z,7.00
2023-02-15T22:58:35.487Z,7.00
2023-02-15T23:01:23.355Z,7.10
2023-02-15T23:04:16.681Z,7.10
2023-02-15T23:07:02.043Z,7.20
2023-02-15T23:09:47.314Z,7.20
2023-02-15T23:12:52.786Z,7.30
2023-02-15T23:15:38.779Z,7.30
2023-02-15T23:18:24.237Z,7.30
2023-02-15T23:21:09.456Z,7.30
2023-02-15T23:23:55.820Z,7.30
2023-02-15T23:26:41.380Z,7.20
2023-02-15T23:29:26.710Z,7.20
2023-02-15T23:32:13.566Z,7.20
2023-02-15T23:34:59.201Z,7.20
2023-02-15T23:37:45.427Z,7.20
2023-02-15T23:40:49.511Z,7.20
2023-02-15T23:43:34.909Z,7.20
2023-02-15T23:46:28.580Z,7.20
2023-02-15T23:49:15.369Z,7.20
2023-02-15T23:52:01.768Z,7.20
2023-02-15T23:54:47.275Z,7.20
2023-02-15T23:57:32.993Z,7.20
